createdAt,value
2019-03-09T00:01:20.774Z,2.6
2019-03-09T00:06:25.973Z,2.7
2019-03-09T00:11:30.947Z,2.6
2019-03-09T00:16:36.659Z,2.3
2019-03-09T00:21:41.672Z,2.5
2019-03-09T00:26:46.762Z,2.3
2019-03-09T00:31:53.041Z,2.3
2019-03-09T00:36:59.009Z,2.5
2019-03-09T00:42:04.006Z,2.4
2019-03-09T00:47:09.150Z,2.3
2019-03-09T00:52:13.102Z,2.3
2019-03-09T00:57:18.606Z,2.3
2019-03-09T01:02:23.772Z,2.2
2019-03-09T01:07:29.978Z,2.3
2019-03-09T01:12:35.483Z,1.9
2019-03-09T01:17:40.599Z,2
2019-03-09T01:22:45.520Z,2.1
2019-03-09T01:27:50.696Z,2.1
2019-03-09T01:32:56.423Z,1.9
2019-03-09T01:38:01.643Z,2
2019-03-09T01:43:06.907Z,1.9
2019-03-09T01:48:12.399Z,1.8
2019-03-09T01:53:18.223Z,2
2019-03-09T01:58:23.845Z,2.1
2019-03-09T02:03:28.919Z,1.9
2019-03-09T02:08:34.074Z,1.9
2019-03-09T02:13:39.682Z,1.9
2019-03-09T02:18:45.267Z,1.9
2019-03-09T02:23:50.393Z,2.1
2019-03-09T02:28:56.060Z,1.7
2019-03-09T02:34:01.624Z,1.8
2019-03-09T02:39:06.981Z,1.7
2019-03-09T02:44:12.764Z,1.7
2019-03-09T02:49:19.089Z,1.7
2019-03-09T02:54:24.028Z,1.9
2019-03-09T02:59:29.155Z,1.8
2019-03-09T03:04:34.843Z,1.6
2019-03-09T03:09:39.982Z,1.6
2019-03-09T03:14:45.848Z,1.6
2019-03-09T03:19:51.592Z,1.8
2019-03-09T03:24:57.084Z,1.6
2019-03-09T03:30:02.126Z,1.6
2019-03-09T03:35:07.776Z,1.6
2019-03-09T03:40:13.599Z,1.5
2019-03-09T03:45:18.620Z,1.5
2019-03-09T03:50:23.696Z,1.4
2019-03-09T03:55:29.236Z,1.5
2019-03-09T04:00:35.099Z,1.5
2019-03-09T04:05:40.273Z,1.6
2019-03-09T04:10:46.103Z,1.7
2019-03-09T04:15:50.279Z,1.5
2019-03-09T04:20:55.373Z,1.5
2019-03-09T04:26:00.832Z,1.3
2019-03-09T04:31:06.684Z,1.4
2019-03-09T04:36:11.784Z,1.6
2019-03-09T04:41:16.916Z,1.4
2019-03-09T04:46:21.952Z,1.2
2019-03-09T04:51:27.057Z,1.4
2019-03-09T04:56:32.110Z,1.5
2019-03-09T05:01:36.248Z,1.4
2019-03-09T05:06:41.259Z,1.6
2019-03-09T05:11:46.800Z,1.5
2019-03-09T05:16:51.932Z,1.3
2019-03-09T05:21:57.526Z,1.3
2019-03-09T05:27:02.606Z,1.5
2019-03-09T05:32:07.861Z,1.5
2019-03-09T05:37:13.364Z,1.4
2019-03-09T05:42:19.491Z,1.6
2019-03-09T05:47:24.520Z,1.4
2019-03-09T05:52:30.196Z,1.6
2019-03-09T05:57:35.719Z,1.4
2019-03-09T06:02:40.732Z,1.6
2019-03-09T06:07:45.765Z,1.5
2019-03-09T06:12:50.996Z,1.6
2019-03-09T06:17:57.000Z,1.5
2019-03-09T06:23:02.713Z,1.5
2019-03-09T06:28:08.580Z,1.5
2019-03-09T06:33:13.738Z,1.4
2019-03-09T06:38:18.688Z,1.4
2019-03-09T06:43:23.879Z,1.5
2019-03-09T06:48:29.186Z,1.5
2019-03-09T06:53:35.327Z,1.5
2019-03-09T06:58:40.865Z,1.6
2019-03-09T07:03:46.553Z,1.4
2019-03-09T07:08:51.995Z,1.5
2019-03-09T07:13:57.310Z,1.5
2019-03-09T07:19:02.299Z,1.5
2019-03-09T07:24:07.479Z,1.5
2019-03-09T07:29:12.480Z,1.4
2019-03-09T07:34:17.699Z,1.5
2019-03-09T07:39:23.545Z,1.6
2019-03-09T07:44:28.887Z,1.6
2019-03-09T07:49:35.085Z,1.4
2019-03-09T07:54:41.310Z,1.6
2019-03-09T07:59:46.561Z,1.5
2019-03-09T08:04:51.858Z,1.5
2019-03-09T08:09:57.044Z,1.7
2019-03-09T08:15:03.543Z,1.7
2019-03-09T08:20:11.041Z,1.5
2019-03-09T08:25:16.781Z,1.7
2019-03-09T08:30:21.923Z,1.6
2019-03-09T08:35:27.118Z,1.4
2019-03-09T08:40:32.727Z,1.6
2019-03-09T08:45:38.844Z,1.4
2019-03-09T08:50:44.253Z,1.5
2019-03-09T08:55:49.413Z,1.6
2019-03-09T09:00:57.091Z,1.4
2019-03-09T09:06:02.623Z,1.5
2019-03-09T09:11:07.755Z,1.5
2019-03-09T09:16:13.603Z,1.6
2019-03-09T09:21:18.960Z,1.7
2019-03-09T09:26:24.472Z,1.7
2019-03-09T09:31:29.840Z,1.6
2019-03-09T09:36:34.927Z,1.6
2019-03-09T09:41:39.808Z,1.6
2019-03-09T09:46:44.903Z,1.7
2019-03-09T09:51:49.783Z,1.5
2019-03-09T09:56:54.848Z,1.6
2019-03-09T10:01:59.829Z,1.5
2019-03-09T10:07:04.878Z,1.7
2019-03-09T10:12:09.922Z,1.5
2019-03-09T10:17:15.570Z,1.4
2019-03-09T10:22:20.848Z,1.6
2019-03-09T10:27:26.486Z,1.3
2019-03-09T10:32:31.617Z,1.4
2019-03-09T10:37:37.917Z,1.4
2019-03-09T10:42:42.840Z,1.3
2019-03-09T10:47:47.975Z,1.5
2019-03-09T10:52:53.628Z,1.5
2019-03-09T10:57:58.738Z,1.4
2019-03-09T11:03:03.993Z,1.4
2019-03-09T11:08:09.228Z,1.4
2019-03-09T11:13:16.189Z,1.3
2019-03-09T11:18:22.135Z,1.4
2019-03-09T11:23:29.849Z,1.4
2019-03-09T11:28:35.156Z,1.4
2019-03-09T11:33:40.212Z,1.6
2019-03-09T11:38:45.428Z,1.5
2019-03-09T11:43:54.632Z,1.3
2019-03-09T11:49:00.602Z,1.4
2019-03-09T11:54:05.198Z,1.5
2019-03-09T11:59:10.684Z,1.4
2019-03-09T12:04:15.772Z,1.4
2019-03-09T12:09:20.933Z,1.4
2019-03-09T12:14:25.981Z,1.2
2019-03-09T12:19:31.428Z,1.4
2019-03-09T12:24:36.720Z,1.4
2019-03-09T12:29:41.981Z,1.3
2019-03-09T12:34:47.939Z,1.3
2019-03-09T12:39:53.712Z,1.2
2019-03-09T12:44:59.714Z,1.3
2019-03-09T12:50:05.185Z,1.2
2019-03-09T12:55:10.315Z,1.3
2019-03-09T13:00:16.291Z,1.2
2019-03-09T13:05:22.014Z,1.3
2019-03-09T13:10:27.312Z,1.2
2019-03-09T13:15:32.513Z,1.1
2019-03-09T13:20:37.891Z,1.3
2019-03-09T13:25:43.083Z,1.2
2019-03-09T13:30:51.519Z,1.2
2019-03-09T13:35:57.303Z,1.3
2019-03-09T13:41:02.913Z,1.2
2019-03-09T13:46:07.895Z,1.2
2019-03-09T13:51:12.981Z,1.4
2019-03-09T13:56:18.133Z,1.1
2019-03-09T14:01:23.390Z,1.2
2019-03-09T14:06:29.059Z,1.3
2019-03-09T14:11:34.728Z,1.1
2019-03-09T14:16:38.722Z,1.3
2019-03-09T14:21:44.539Z,1.4
2019-03-09T14:26:50.824Z,1.3
2019-03-09T14:31:55.258Z,1.2
2019-03-09T14:37:01.219Z,1.1
2019-03-09T14:42:06.897Z,1.3
2019-03-09T14:47:15.332Z,1.2
2019-03-09T14:52:19.713Z,1.1
2019-03-09T14:57:24.841Z,1.2
2019-03-09T15:02:30.025Z,1.2
2019-03-09T15:07:35.587Z,1.2
2019-03-09T15:12:40.912Z,1.2
2019-03-09T15:17:46.607Z,1.3
2019-03-09T15:22:52.607Z,1.2
2019-03-09T15:27:57.914Z,1.2
2019-03-09T15:33:03.492Z,1.3
2019-03-09T15:38:09.149Z,1.3
2019-03-09T15:43:14.925Z,1.3
2019-03-09T15:48:20.587Z,1.1
2019-03-09T15:53:26.574Z,1.2
2019-03-09T15:58:36.372Z,1.3
2019-03-09T16:03:33.220Z,1.3
2019-03-09T16:08:38.293Z,1.3
2019-03-09T16:13:44.373Z,1.1
2019-03-09T16:18:49.531Z,1.1
2019-03-09T16:23:55.035Z,1.1
2019-03-09T16:29:00.979Z,1.2
2019-03-09T16:34:06.168Z,1.1
2019-03-09T16:39:12.754Z,1.2
2019-03-09T16:44:19.713Z,1.1
2019-03-09T16:49:27.476Z,1.4
2019-03-09T16:54:36.992Z,1.2
2019-03-09T16:59:44.230Z,1.3
2019-03-09T17:04:50.080Z,1.2
2019-03-09T17:09:55.121Z,1.2
2019-03-09T17:15:00.652Z,1.2
2019-03-09T17:20:06.167Z,1.3
2019-03-09T17:25:11.415Z,1.3
2019-03-09T17:30:16.738Z,1.4
2019-03-09T17:35:22.829Z,1.2
2019-03-09T17:40:27.821Z,1.3
2019-03-09T17:45:32.803Z,1.4
2019-03-09T17:50:37.676Z,1.3
2019-03-09T17:55:42.939Z,1.5
2019-03-09T18:00:48.911Z,1.5
2019-03-09T18:05:52.743Z,1.5
2019-03-09T18:10:58.456Z,1.5
2019-03-09T18:16:03.596Z,1.5
2019-03-09T18:21:12.896Z,1.5
2019-03-09T18:26:19.981Z,1.5
2019-03-09T18:31:30.653Z,1.5
2019-03-09T18:36:35.642Z,1.7
2019-03-09T18:41:43.561Z,1.5
2019-03-09T18:46:48.654Z,1.6
2019-03-09T18:51:53.832Z,1.7
2019-03-09T18:56:58.048Z,1.6
2019-03-09T19:02:04.006Z,1.4
2019-03-09T19:07:08.444Z,1.6
2019-03-09T19:12:14.001Z,1.6
2019-03-09T19:17:19.182Z,1.8
2019-03-09T19:22:25.304Z,1.6
2019-03-09T19:27:30.535Z,1.8
2019-03-09T19:32:36.267Z,1.8
2019-03-09T19:37:41.954Z,1.7
2019-03-09T19:42:46.891Z,1.8
2019-03-09T19:47:54.633Z,1.7
2019-03-09T19:53:00.392Z,1.7
2019-03-09T19:58:05.818Z,1.8
2019-03-09T20:03:10.881Z,1.6
2019-03-09T20:08:16.238Z,1.8
2019-03-09T20:13:21.660Z,1.7
2019-03-09T20:18:28.956Z,2
2019-03-09T20:23:34.176Z,1.7
2019-03-09T20:28:39.337Z,1.7
2019-03-09T20:33:45.128Z,1.7
2019-03-09T20:38:51.294Z,1.8
2019-03-09T20:43:56.560Z,1.8
2019-03-09T20:49:01.812Z,1.8
2019-03-09T20:54:07.602Z,1.8
2019-03-09T20:59:13.100Z,1.8
2019-03-09T21:04:18.249Z,2
2019-03-09T21:09:23.428Z,2
2019-03-09T21:14:29.293Z,2
2019-03-09T21:19:34.730Z,1.7
2019-03-09T21:24:39.675Z,1.8
2019-03-09T21:29:44.721Z,1.8
2019-03-09T21:34:50.383Z,1.7
2019-03-09T21:39:56.211Z,1.8
2019-03-09T21:45:01.417Z,1.7
2019-03-09T21:50:07.552Z,1.8
2019-03-09T21:55:12.918Z,1.9
2019-03-09T22:00:17.926Z,2
2019-03-09T22:05:22.927Z,1.9
2019-03-09T22:10:28.986Z,1.8
2019-03-09T22:15:34.649Z,1.7
2019-03-09T22:20:39.716Z,1.9
2019-03-09T22:25:45.003Z,1.9
2019-03-09T22:30:51.312Z,1.6
2019-03-09T22:35:56.356Z,1.8
2019-03-09T22:41:00.707Z,1.9
2019-03-09T22:46:06.432Z,1.9
2019-03-09T22:51:12.284Z,1.9
2019-03-09T22:56:17.193Z,1.8
2019-03-09T23:01:23.120Z,1.8
2019-03-09T23:06:29.264Z,1.8
2019-03-09T23:11:34.421Z,1.8
2019-03-09T23:16:39.603Z,2
2019-03-09T23:21:45.314Z,1.9
2019-03-09T23:26:50.273Z,1.8
2019-03-09T23:31:55.960Z,1.9
2019-03-09T23:37:00.978Z,1.8
2019-03-09T23:42:06.883Z,1.9
2019-03-09T23:47:12.185Z,1.9
2019-03-09T23:52:17.735Z,1.8
2019-03-09T23:57:23.279Z,1.9
